createdAt,value
2023-04-26T00:01:59.963Z,98208.13
2023-04-26T00:04:28.563Z,98209.70
2023-04-26T00:06:55.651Z,98209.45
2023-04-26T00:09:22.800Z,98212.55
2023-04-26T00:11:49.639Z,98209.77
2023-04-26T00:14:16.790Z,98209.34
2023-04-26T00:16:43.831Z,98205.02
2023-04-26T00:19:11.395Z,98202.23
2023-04-26T00:21:39.262Z,98201.23
2023-04-26T00:24:06.827Z,98201.43
2023-04-26T00:26:34.340Z,98198.27
2023-04-26T00:29:02.392Z,98200.90
2023-04-26T00:31:29.306Z,98199.62
2023-04-26T00:33:56.405Z,98199.06
2023-04-26T00:36:23.487Z,98199.30
2023-04-26T00:38:50.828Z,98200.69
2023-04-26T00:41:17.995Z,98199.34
2023-04-26T00:43:45.365Z,98197.40
2023-04-26T00:46:12.846Z,98196.09
2023-04-26T00:48:40.569Z,98199.50
2023-04-26T00:51:07.565Z,98197.36
2023-04-26T00:53:35.313Z,98199.16
2023-04-26T00:56:02.836Z,98193.55
2023-04-26T00:58:29.853Z,98196.95
2023-04-26T01:00:56.766Z,98193.23
2023-04-26T01:03:24.557Z,98188.66
2023-04-26T01:05:52.084Z,98185.48
2023-04-26T01:08:20.524Z,98184.92
2023-04-26T01:10:48.232Z,98184.41
2023-04-26T01:13:15.538Z,98179.29
2023-04-26T01:15:45.875Z,98177.67
2023-04-26T01:18:13.788Z,98178.27
2023-04-26T01:20:41.228Z,98182.23
2023-04-26T01:23:09.028Z,98180.98
2023-04-26T01:25:36.005Z,98176.66
2023-04-26T01:28:03.309Z,98177.90
2023-04-26T01:30:30.455Z,98177.20
2023-04-26T01:32:57.310Z,98171.45
2023-04-26T01:35:25.784Z,98171.30
2023-04-26T01:37:52.662Z,98166.84
2023-04-26T01:40:21.385Z,98162.71
2023-04-26T01:42:48.397Z,98157.35
2023-04-26T01:45:15.660Z,98154.27
2023-04-26T01:48:01.171Z,98153.86
2023-04-26T01:50:31.501Z,98154.29
2023-04-26T01:52:58.422Z,98152.30
2023-04-26T01:55:25.375Z,98148.34
2023-04-26T01:57:52.386Z,98153.74
2023-04-26T02:00:19.771Z,98151.30
2023-04-26T02:02:49.153Z,98150.33
2023-04-26T02:05:16.106Z,98145.92
2023-04-26T02:07:43.040Z,98149.40
2023-04-26T02:10:10.179Z,98146.45
2023-04-26T02:12:37.617Z,98146.45
2023-04-26T02:15:05.769Z,98140.42
2023-04-26T02:17:34.307Z,98137.77
2023-04-26T02:20:01.104Z,98132.48
2023-04-26T02:22:29.057Z,98128.99
2023-04-26T02:24:55.942Z,98127.98
2023-04-26T02:27:27.256Z,98123.67
2023-04-26T02:29:54.850Z,98124.81
2023-04-26T02:32:21.693Z,98121.33
2023-04-26T02:34:49.103Z,98123.23
2023-04-26T02:37:15.990Z,98117.55
2023-04-26T02:39:43.017Z,98117.42
2023-04-26T02:42:10.219Z,98115.89
2023-04-26T02:44:38.968Z,98114.92
2023-04-26T02:47:06.130Z,98116.02
2023-04-26T02:49:33.778Z,98116.11
2023-04-26T02:52:00.619Z,98117.84
2023-04-26T02:54:28.080Z,98116.77
2023-04-26T02:56:54.854Z,98114.28
2023-04-26T02:59:21.862Z,98106.13
2023-04-26T03:01:48.728Z,98110.79
2023-04-26T03:04:17.095Z,98107.61
2023-04-26T03:06:44.169Z,98107.38
2023-04-26T03:09:11.593Z,98110.14
2023-04-26T03:11:38.446Z,98111.13
2023-04-26T03:14:05.402Z,98114.04
2023-04-26T03:16:40.349Z,98114.85
2023-04-26T03:19:07.844Z,98116.48
2023-04-26T03:21:35.336Z,98114.31
2023-04-26T03:24:02.695Z,98119.11
2023-04-26T03:26:30.205Z,98112.80
2023-04-26T03:28:57.186Z,98113.88
2023-04-26T03:31:24.588Z,98111.63
2023-04-26T03:33:51.584Z,98107.84
2023-04-26T03:36:18.667Z,98109.66
2023-04-26T03:38:45.881Z,98108.12
2023-04-26T03:41:13.439Z,98114.85
2023-04-26T03:43:40.287Z,98116.31
2023-04-26T03:46:07.243Z,98114.91
2023-04-26T03:48:34.476Z,98121.68
2023-04-26T03:51:02.050Z,98125.19
2023-04-26T03:53:28.975Z,98123.25
2023-04-26T03:55:55.960Z,98128.45
2023-04-26T03:58:23.179Z,98129.04
2023-04-26T04:00:50.169Z,98128.64
2023-04-26T04:03:17.564Z,98129.06
2023-04-26T04:05:44.569Z,98124.77
2023-04-26T04:08:11.780Z,98125.23
2023-04-26T04:10:38.709Z,98124.85
2023-04-26T04:13:05.659Z,98124.77
2023-04-26T04:15:32.519Z,98124.07
2023-04-26T04:17:59.725Z,98118.98
2023-04-26T04:20:26.799Z,98120.90
2023-04-26T04:23:01.487Z,98118.15
2023-04-26T04:25:28.916Z,98122.45
2023-04-26T04:28:03.836Z,98125.00
2023-04-26T04:30:31.574Z,98123.02
2023-04-26T04:32:59.597Z,98121.94
2023-04-26T04:35:28.528Z,98124.88
2023-04-26T04:37:56.557Z,98126.61
2023-04-26T04:40:24.086Z,98125.29
2023-04-26T04:42:51.312Z,98131.30
2023-04-26T04:45:20.858Z,98130.89
2023-04-26T04:47:49.314Z,98136.09
2023-04-26T04:50:16.240Z,98136.05
2023-04-26T04:52:43.398Z,98133.20
2023-04-26T04:55:11.152Z,98135.92
2023-04-26T04:57:40.680Z,98132.77
2023-04-26T05:00:12.039Z,98130.03
2023-04-26T05:02:45.520Z,98133.10
2023-04-26T05:05:12.824Z,98134.23
2023-04-26T05:07:39.877Z,98132.98
2023-04-26T05:10:07.774Z,98133.62
2023-04-26T05:12:34.924Z,98133.27
2023-04-26T05:15:02.086Z,98132.75
2023-04-26T05:17:31.745Z,98134.95
2023-04-26T05:19:59.133Z,98134.95
2023-04-26T05:22:27.376Z,98134.77
2023-04-26T05:24:55.281Z,98138.09
2023-04-26T05:27:22.225Z,98136.13
2023-04-26T05:30:05.827Z,98142.25
2023-04-26T05:32:58.994Z,98141.83
2023-04-26T05:35:34.780Z,98146.59
2023-04-26T05:38:01.629Z,98144.83
2023-04-26T05:40:28.866Z,98146.09
2023-04-26T05:42:55.977Z,98145.85
2023-04-26T05:45:23.513Z,98146.50
2023-04-26T05:47:51.264Z,98145.89
2023-04-26T05:50:18.279Z,98144.98
2023-04-26T05:52:45.646Z,98145.80
2023-04-26T05:55:13.093Z,98147.29
2023-04-26T05:57:40.200Z,98149.84
2023-04-26T06:00:10.701Z,98143.85
2023-04-26T06:02:44.077Z,98140.83
2023-04-26T06:05:18.329Z,98142.59
2023-04-26T06:07:46.247Z,98138.33
2023-04-26T06:10:14.237Z,98138.92
2023-04-26T06:12:42.116Z,98139.78
2023-04-26T06:15:10.403Z,98137.27
2023-04-26T06:17:38.778Z,98138.16
2023-04-26T06:20:06.678Z,98140.20
2023-04-26T06:22:36.154Z,98140.44
2023-04-26T06:25:04.654Z,98140.23
2023-04-26T06:27:31.629Z,98137.70
2023-04-26T06:29:59.286Z,98136.73
2023-04-26T06:32:26.480Z,98139.95
2023-04-26T06:34:55.155Z,98142.57
2023-04-26T06:37:22.180Z,98147.04
2023-04-26T06:39:49.225Z,98141.77
2023-04-26T06:42:16.410Z,98149.77
2023-04-26T06:45:10.843Z,98150.95
2023-04-26T06:47:38.239Z,98151.46
2023-04-26T06:50:05.888Z,98152.89
2023-04-26T06:52:33.102Z,98153.59
2023-04-26T06:55:03.893Z,98153.70
2023-04-26T06:57:30.750Z,98147.01
2023-04-26T06:59:58.335Z,98153.80
2023-04-26T07:02:26.434Z,98153.87
2023-04-26T07:04:53.742Z,98155.79
2023-04-26T07:07:20.933Z,98151.72
2023-04-26T07:09:47.729Z,98154.01
2023-04-26T07:12:14.746Z,98151.86
2023-04-26T07:14:42.756Z,98149.98
2023-04-26T07:17:10.249Z,98152.77
2023-04-26T07:19:37.180Z,98154.30
2023-04-26T07:22:04.188Z,98156.30
2023-04-26T07:24:31.233Z,98155.38
2023-04-26T07:26:58.287Z,98156.71
2023-04-26T07:29:25.278Z,98157.27
2023-04-26T07:31:52.281Z,98160.23
2023-04-26T07:34:19.268Z,98166.83
2023-04-26T07:36:46.446Z,98172.91
2023-04-26T07:39:14.902Z,98176.87
2023-04-26T07:41:43.741Z,98176.30
2023-04-26T07:44:11.145Z,98177.92
2023-04-26T07:46:38.217Z,98177.92
2023-04-26T07:49:05.292Z,98182.02
2023-04-26T07:51:32.224Z,98180.83
2023-04-26T07:53:59.151Z,98179.89
2023-04-26T07:56:26.180Z,98181.50
2023-04-26T07:58:52.945Z,98179.33
2023-04-26T08:01:19.751Z,98183.02
2023-04-26T08:03:48.497Z,98188.29
2023-04-26T08:06:17.113Z,98191.70
2023-04-26T08:08:48.635Z,98188.74
2023-04-26T08:11:15.991Z,98188.39
2023-04-26T08:13:43.560Z,98190.70
2023-04-26T08:16:10.530Z,98191.45
2023-04-26T08:18:37.332Z,98186.48
2023-04-26T08:21:04.209Z,98188.98
2023-04-26T08:23:37.910Z,98189.77
2023-04-26T08:26:05.809Z,98189.11
2023-04-26T08:28:32.730Z,98192.34
2023-04-26T08:30:59.797Z,98183.65
2023-04-26T08:33:26.684Z,98193.45
2023-04-26T08:35:53.570Z,98185.30
2023-04-26T08:38:22.050Z,98192.20
2023-04-26T08:40:48.984Z,98195.73
2023-04-26T08:43:18.797Z,98189.60
2023-04-26T08:45:48.866Z,98194.77
2023-04-26T08:48:17.832Z,98195.02
2023-04-26T08:50:45.942Z,98193.02
2023-04-26T08:53:17.327Z,98190.58
2023-04-26T08:55:48.883Z,98192.89
2023-04-26T08:58:19.221Z,98190.66
2023-04-26T09:00:46.065Z,98191.90
2023-04-26T09:03:13.737Z,98193.37
2023-04-26T09:05:43.583Z,98194.58
2023-04-26T09:08:16.829Z,98198.42
2023-04-26T09:10:43.861Z,98196.97
2023-04-26T09:13:11.166Z,98197.44
2023-04-26T09:15:38.184Z,98195.73
2023-04-26T09:18:25.997Z,98194.91
2023-04-26T09:21:03.505Z,98189.36
2023-04-26T09:23:31.251Z,98192.29
2023-04-26T09:26:17.971Z,98193.20
2023-04-26T09:28:45.902Z,98190.98
2023-04-26T09:31:37.016Z,98190.88
2023-04-26T09:34:03.776Z,98187.03
2023-04-26T09:36:31.726Z,98186.89
2023-04-26T09:38:59.434Z,98193.38
2023-04-26T09:41:42.566Z,98194.48
2023-04-26T09:44:21.562Z,98196.02
2023-04-26T09:47:17.396Z,98194.23
2023-04-26T09:49:51.111Z,98195.09
2023-04-26T09:52:18.490Z,98196.52
2023-04-26T09:54:49.775Z,98197.45
2023-04-26T09:57:17.561Z,98201.38
2023-04-26T09:59:55.868Z,98202.38
2023-04-26T10:02:23.477Z,98202.00
2023-04-26T10:04:54.428Z,98202.27
2023-04-26T10:07:24.339Z,98206.79
2023-04-26T10:09:51.309Z,98206.92
2023-04-26T10:12:18.969Z,98206.26
2023-04-26T10:14:46.317Z,98205.35
2023-04-26T10:17:13.248Z,98205.63
2023-04-26T10:19:43.522Z,98206.33
2023-04-26T10:22:14.725Z,98208.91
2023-04-26T10:24:43.046Z,98214.02
2023-04-26T10:27:10.059Z,98212.77
2023-04-26T10:29:55.888Z,98215.10
2023-04-26T10:32:22.944Z,98213.08
2023-04-26T10:35:14.772Z,98212.94
2023-04-26T10:38:01.559Z,98213.55
2023-04-26T10:40:33.202Z,98214.30
2023-04-26T10:43:15.553Z,98215.73
2023-04-26T10:45:43.225Z,98213.19
2023-04-26T10:48:23.270Z,98215.91
2023-04-26T10:51:04.893Z,98213.48
2023-04-26T10:53:33.784Z,98209.78
2023-04-26T10:56:00.668Z,98210.13
2023-04-26T10:58:32.274Z,98213.24
2023-04-26T11:01:16.933Z,98211.09
2023-04-26T11:04:07.786Z,98220.29
2023-04-26T11:06:50.675Z,98223.58
2023-04-26T11:09:36.913Z,98223.77
2023-04-26T11:12:04.887Z,98224.93
2023-04-26T11:14:35.149Z,98227.10
2023-04-26T11:17:08.950Z,98227.25
2023-04-26T11:19:35.795Z,98228.40
2023-04-26T11:22:06.826Z,98228.54
2023-04-26T11:24:38.330Z,98230.89
2023-04-26T11:27:09.198Z,98228.27
2023-04-26T11:29:36.758Z,98237.26
2023-04-26T11:32:04.258Z,98238.46
2023-04-26T11:34:32.828Z,98235.93
2023-04-26T11:37:01.402Z,98238.41
2023-04-26T11:39:28.612Z,98231.91
2023-04-26T11:42:06.509Z,98234.21
2023-04-26T11:44:33.742Z,98231.41
2023-04-26T11:47:04.348Z,98232.42
2023-04-26T11:49:32.214Z,98235.96
2023-04-26T11:51:59.021Z,98232.99
2023-04-26T11:54:30.235Z,98233.14
2023-04-26T11:56:57.709Z,98233.45
2023-04-26T11:59:29.477Z,98235.03
2023-04-26T12:01:56.719Z,98234.10
2023-04-26T12:04:30.138Z,98234.65
2023-04-26T12:06:57.737Z,98228.20
2023-04-26T12:09:27.494Z,98228.63
2023-04-26T12:12:05.806Z,98230.20
2023-04-26T12:14:41.874Z,98230.78
2023-04-26T12:17:09.898Z,98229.55
2023-04-26T12:19:37.631Z,98225.17
2023-04-26T12:22:06.271Z,98222.27
2023-04-26T12:24:35.238Z,98224.89
2023-04-26T12:27:03.951Z,98220.17
2023-04-26T12:29:31.402Z,98217.59
2023-04-26T12:31:58.929Z,98220.84
2023-04-26T12:34:25.713Z,98224.49
2023-04-26T12:36:52.426Z,98223.20
2023-04-26T12:39:19.119Z,98226.28
2023-04-26T12:41:46.120Z,98224.36
2023-04-26T12:44:13.905Z,98222.49
2023-04-26T12:46:40.835Z,98222.31
2023-04-26T12:49:07.621Z,98221.75
2023-04-26T12:51:34.630Z,98227.15
2023-04-26T12:54:01.444Z,98224.64
2023-04-26T12:56:28.888Z,98223.76
2023-04-26T12:58:55.700Z,98223.81
2023-04-26T13:01:22.547Z,98226.77
2023-04-26T13:03:49.671Z,98227.10
2023-04-26T13:06:16.899Z,98225.77
2023-04-26T13:08:43.660Z,98227.13
2023-04-26T13:11:10.602Z,98224.92
2023-04-26T13:13:43.771Z,98221.79
2023-04-26T13:16:11.682Z,98225.09
2023-04-26T13:18:38.776Z,98222.81
2023-04-26T13:21:05.553Z,98225.88
2023-04-26T13:23:32.594Z,98224.29
2023-04-26T13:25:59.772Z,98226.17
2023-04-26T13:28:26.822Z,98228.12
2023-04-26T13:30:53.757Z,98230.56
2023-04-26T13:33:20.801Z,98229.23
2023-04-26T13:35:47.857Z,98229.34
2023-04-26T13:38:16.073Z,98228.09
2023-04-26T13:40:43.528Z,98224.77
2023-04-26T13:43:10.728Z,98222.13
2023-04-26T13:45:37.671Z,98224.20
2023-04-26T13:48:04.555Z,98221.90
2023-04-26T13:50:31.402Z,98218.81
2023-04-26T13:52:58.891Z,98217.49
2023-04-26T13:55:25.743Z,98221.85
2023-04-26T13:57:52.703Z,98220.47
2023-04-26T14:00:19.922Z,98216.38
2023-04-26T14:02:47.805Z,98213.80
2023-04-26T14:05:15.977Z,98213.95
2023-04-26T14:07:43.533Z,98213.15
2023-04-26T14:10:11.912Z,98214.10
2023-04-26T14:12:39.281Z,98217.08
2023-04-26T14:15:07.143Z,98215.81
2023-04-26T14:17:34.487Z,98215.02
2023-04-26T14:20:01.529Z,98218.63
2023-04-26T14:22:28.885Z,98211.86
2023-04-26T14:24:56.092Z,98215.21
2023-04-26T14:27:22.908Z,98215.42
2023-04-26T14:29:50.067Z,98216.83
2023-04-26T14:32:16.772Z,98220.33
2023-04-26T14:34:44.079Z,98218.09
2023-04-26T14:37:11.041Z,98214.67
2023-04-26T14:39:37.966Z,98217.92
2023-04-26T14:42:05.168Z,98220.13
2023-04-26T14:44:32.368Z,98218.39
2023-04-26T14:46:59.059Z,98219.79
2023-04-26T14:49:25.800Z,98218.73
2023-04-26T14:51:53.575Z,98217.93
2023-04-26T14:54:21.207Z,98218.86
2023-04-26T14:56:48.169Z,98218.23
2023-04-26T14:59:14.897Z,98219.23
2023-04-26T15:01:41.712Z,98219.92
2023-04-26T15:04:08.785Z,98221.18
2023-04-26T15:06:36.668Z,98225.84
2023-04-26T15:09:04.011Z,98219.05
2023-04-26T15:11:30.816Z,98220.27
2023-04-26T15:13:57.557Z,98220.70
2023-04-26T15:16:24.318Z,98220.48
2023-04-26T15:18:51.335Z,98217.91
2023-04-26T15:21:18.711Z,98213.81
2023-04-26T15:23:45.997Z,98212.52
2023-04-26T15:26:13.672Z,98220.91
2023-04-26T15:28:40.727Z,98218.29
2023-04-26T15:31:08.684Z,98217.71
2023-04-26T15:33:35.992Z,98217.75
2023-04-26T15:36:03.474Z,98214.23
2023-04-26T15:38:30.730Z,98212.53
2023-04-26T15:40:57.589Z,98210.14
2023-04-26T15:43:24.410Z,98205.36
2023-04-26T15:45:51.196Z,98211.16
2023-04-26T15:48:19.034Z,98212.31
2023-04-26T15:50:45.838Z,98213.73
2023-04-26T15:53:13.189Z,98217.39
2023-04-26T15:55:40.820Z,98214.95
2023-04-26T15:58:07.607Z,98220.86
2023-04-26T16:00:35.905Z,98222.45
2023-04-26T16:03:02.860Z,98222.23
2023-04-26T16:05:31.091Z,98222.80
2023-04-26T16:07:58.972Z,98221.73
2023-04-26T16:10:27.013Z,98227.88
2023-04-26T16:12:53.946Z,98230.87
2023-04-26T16:15:20.944Z,98231.24
2023-04-26T16:17:47.917Z,98234.70
2023-04-26T16:20:14.814Z,98231.90
2023-04-26T16:22:44.060Z,98236.05
2023-04-26T16:25:12.200Z,98237.52
2023-04-26T16:27:39.165Z,98236.41
2023-04-26T16:30:07.669Z,98238.16
2023-04-26T16:32:35.266Z,98244.05
2023-04-26T16:35:04.499Z,98250.65
2023-04-26T16:37:31.552Z,98262.93
2023-04-26T16:39:58.481Z,98271.83
2023-04-26T16:42:25.942Z,98278.92
2023-04-26T16:44:54.272Z,98272.91
2023-04-26T16:47:21.312Z,98292.11
2023-04-26T16:49:48.257Z,98301.80
2023-04-26T16:52:15.648Z,98298.70
2023-04-26T16:54:43.838Z,98298.96
2023-04-26T16:57:11.349Z,98302.04
2023-04-26T16:59:38.048Z,98307.95
2023-04-26T17:02:04.934Z,98313.61
2023-04-26T17:04:32.976Z,98317.80
2023-04-26T17:07:00.376Z,98310.63
2023-04-26T17:09:28.847Z,98311.91
2023-04-26T17:11:55.583Z,98315.30
2023-04-26T17:14:22.326Z,98314.52
2023-04-26T17:16:49.189Z,98328.01
2023-04-26T17:19:16.056Z,98328.19
2023-04-26T17:21:42.811Z,98329.67
2023-04-26T17:24:09.558Z,98329.40
2023-04-26T17:26:37.563Z,98332.69
2023-04-26T17:29:04.438Z,98333.80
2023-04-26T17:31:31.871Z,98340.31
2023-04-26T17:33:58.666Z,98343.91
2023-04-26T17:36:26.025Z,98347.64
2023-04-26T17:38:52.735Z,98355.27
2023-04-26T17:41:21.444Z,98355.56
2023-04-26T17:43:48.240Z,98363.64
2023-04-26T17:46:15.215Z,98366.98
2023-04-26T17:48:42.016Z,98380.27
2023-04-26T17:51:08.886Z,98391.36
2023-04-26T17:53:36.096Z,98398.90
2023-04-26T17:56:06.603Z,98404.25
2023-04-26T17:58:33.719Z,98408.38
2023-04-26T18:01:02.406Z,98411.25
2023-04-26T18:03:30.854Z,98415.91
2023-04-26T18:05:57.916Z,98428.70
2023-04-26T18:08:28.119Z,98435.34
2023-04-26T18:10:55.193Z,98436.77
2023-04-26T18:13:22.339Z,98434.91
2023-04-26T18:15:50.662Z,98430.80
2023-04-26T18:18:17.588Z,98441.25
2023-04-26T18:20:44.778Z,98441.20
2023-04-26T18:23:11.828Z,98446.10
2023-04-26T18:25:39.083Z,98451.21
2023-04-26T18:28:08.050Z,98457.87
2023-04-26T18:30:35.060Z,98455.41
2023-04-26T18:33:02.064Z,98458.20
2023-04-26T18:35:28.997Z,98469.77
2023-04-26T18:37:56.554Z,98472.62
2023-04-26T18:40:23.357Z,98466.77
2023-04-26T18:42:50.184Z,98473.31
2023-04-26T18:45:16.906Z,98473.52
2023-04-26T18:47:44.070Z,98471.98
2023-04-26T18:50:10.852Z,98473.25
2023-04-26T18:52:39.152Z,98473.85
2023-04-26T18:55:07.570Z,98475.69
2023-04-26T18:57:35.519Z,98478.30
2023-04-26T19:00:04.670Z,98478.66
2023-04-26T19:02:33.519Z,98487.52
2023-04-26T19:05:00.859Z,98499.23
2023-04-26T19:07:27.925Z,98494.50
2023-04-26T19:10:00.606Z,98499.11
2023-04-26T19:12:27.920Z,98494.63
2023-04-26T19:14:54.874Z,98506.36
2023-04-26T19:17:22.180Z,98513.11
2023-04-26T19:19:52.827Z,98508.39
2023-04-26T19:22:19.709Z,98510.80
2023-04-26T19:24:49.621Z,98510.45
2023-04-26T19:27:16.996Z,98508.83
2023-04-26T19:29:43.871Z,98514.40
2023-04-26T19:32:10.686Z,98517.52
2023-04-26T19:34:40.136Z,98514.70
2023-04-26T19:37:06.918Z,98517.62
2023-04-26T19:39:33.678Z,98520.50
2023-04-26T19:42:00.972Z,98528.64
2023-04-26T19:44:27.798Z,98530.89
2023-04-26T19:46:54.875Z,98535.05
2023-04-26T19:49:21.741Z,98534.52
2023-04-26T19:51:48.532Z,98534.29
2023-04-26T19:54:16.748Z,98537.52
2023-04-26T19:56:43.470Z,98530.70
2023-04-26T19:59:10.234Z,98533.13
2023-04-26T20:01:37.357Z,98535.34
2023-04-26T20:04:04.284Z,98534.83
2023-04-26T20:06:32.648Z,98532.58
2023-04-26T20:08:59.409Z,98533.64
2023-04-26T20:11:26.191Z,98537.02
2023-04-26T20:13:52.986Z,98542.66
2023-04-26T20:16:20.217Z,98547.41
2023-04-26T20:18:47.233Z,98551.51
2023-04-26T20:21:13.995Z,98550.78
2023-04-26T20:23:40.977Z,98545.95
2023-04-26T20:26:07.733Z,98543.46
2023-04-26T20:28:35.031Z,98547.73
2023-04-26T20:31:01.936Z,98548.63
2023-04-26T20:33:28.877Z,98546.73
2023-04-26T20:35:56.187Z,98531.57
2023-04-26T20:38:23.550Z,98530.02
2023-04-26T20:40:50.583Z,98544.46
2023-04-26T20:43:17.882Z,98542.98
2023-04-26T20:45:44.716Z,98541.83
2023-04-26T20:48:11.674Z,98543.83
2023-04-26T20:50:38.526Z,98546.27
2023-04-26T20:53:06.093Z,98545.16
2023-04-26T20:55:33.015Z,98550.46
2023-04-26T20:57:59.861Z,98557.33
2023-04-26T21:00:26.719Z,98561.01
2023-04-26T21:02:53.681Z,98556.52
2023-04-26T21:05:21.201Z,98558.90
2023-04-26T21:07:48.153Z,98555.45
2023-04-26T21:10:15.132Z,98547.52
2023-04-26T21:12:42.158Z,98539.38
2023-04-26T21:15:09.596Z,98543.06
2023-04-26T21:17:36.481Z,98548.04
2023-04-26T21:20:04.107Z,98553.33
2023-04-26T21:22:31.325Z,98556.56
2023-04-26T21:24:58.096Z,98554.84
2023-04-26T21:27:25.373Z,98556.91
2023-04-26T21:29:52.300Z,98558.95
2023-04-26T21:32:19.240Z,98556.80
2023-04-26T21:34:46.035Z,98552.77
2023-04-26T21:37:12.810Z,98557.40
2023-04-26T21:39:39.695Z,98556.86
2023-04-26T21:42:06.863Z,98557.23
2023-04-26T21:44:33.849Z,98558.42
2023-04-26T21:47:00.731Z,98562.88
2023-04-26T21:49:27.581Z,98575.30
2023-04-26T21:51:54.324Z,98587.96
2023-04-26T21:54:21.531Z,98587.75
2023-04-26T21:56:48.348Z,98596.24
2023-04-26T21:59:15.101Z,98599.39
2023-04-26T22:01:41.846Z,98601.48
2023-04-26T22:04:08.721Z,98597.15
2023-04-26T22:06:36.170Z,98598.14
2023-04-26T22:09:04.202Z,98596.02
2023-04-26T22:11:31.204Z,98596.19
2023-04-26T22:13:58.216Z,98600.58
2023-04-26T22:16:25.550Z,98605.58
2023-04-26T22:18:52.400Z,98602.40
2023-04-26T22:21:19.434Z,98601.36
2023-04-26T22:23:46.190Z,98597.44
2023-04-26T22:26:12.953Z,98597.73
2023-04-26T22:28:40.022Z,98595.44
2023-04-26T22:31:06.720Z,98598.08
2023-04-26T22:33:33.500Z,98600.46
2023-04-26T22:36:00.330Z,98604.64
2023-04-26T22:38:27.120Z,98600.93
2023-04-26T22:40:53.801Z,98604.08
2023-04-26T22:43:22.001Z,98606.69
2023-04-26T22:45:48.782Z,98609.80
2023-04-26T22:48:15.568Z,98611.38
2023-04-26T22:50:42.349Z,98613.89
2023-04-26T22:53:09.049Z,98613.56
2023-04-26T22:55:36.141Z,98612.04
2023-04-26T22:58:02.866Z,98610.06
2023-04-26T23:00:30.299Z,98611.08
2023-04-26T23:02:57.070Z,98605.07
2023-04-26T23:05:23.959Z,98604.80
2023-04-26T23:07:50.820Z,98602.28
2023-04-26T23:10:17.693Z,98604.27
2023-04-26T23:12:44.727Z,98608.41
2023-04-26T23:15:11.764Z,98615.40
2023-04-26T23:17:41.005Z,98620.29
2023-04-26T23:20:11.506Z,98620.29
2023-04-26T23:22:39.803Z,98620.48
2023-04-26T23:25:08.173Z,98618.33
2023-04-26T23:27:36.409Z,98614.33
2023-04-26T23:30:04.090Z,98616.77
2023-04-26T23:32:31.341Z,98622.25
2023-04-26T23:34:58.191Z,98625.20
2023-04-26T23:37:24.921Z,98629.39
2023-04-26T23:39:51.613Z,98624.41
2023-04-26T23:42:18.343Z,98624.71
2023-04-26T23:44:45.128Z,98627.10
2023-04-26T23:47:11.846Z,98632.14
2023-04-26T23:49:38.550Z,98638.73
2023-04-26T23:52:05.612Z,98636.23
2023-04-26T23:54:33.003Z,98640.70
2023-04-26T23:56:59.864Z,98640.27
2023-04-26T23:59:26.946Z,98642.09
